aviador You're here:

SCCF Decoded Metar

CALAMA in CHILE
Report Time2017-12-11 09:00:00
UTC Time2017-12-11 09:16:27
Flight Rules vfr VFR
Wind120° at 16 kt
W.Decomp.*RWY 10: 14.6 kt HW 6.5 kt RCW
W.Rank120° ranks 10
Current wind is above 120° avg. (11.4)
Visibility9999 m
Phenomena:N/A
Clouds:N/A
Expected CloudBase > 8,400 ft AGL from Temp-Dew spread
CeilingNone
Temp07°C (ISA +7)
Dew Point-14°C (21% RH)
AAT-2.1°C
QNH1025 hPa
Density Alt8,045 ft
Elevation7,585 ft
Report Wrong Elevation
Raw Report
SCCF 110900Z 12016KT CAVOK 07/M14 Q1025=

Extra information for SCCF:More info

Metar Taf Metar & Taf Last 4 Metars F.Rules Stats Wind Profile Meteogram Temp Stats Airport Information Weather charts Add Link Nearby VenuesMetar ALERT Operation Metar Decoded Social comments